Terminal Aerodrome Forecast
Issued by NWS Denver/Boulder, CO

Home | Current Version | Previous Version | Text Only | Print | Product List | Glossary On
Versions: 1 2 3 4 5 6 7 8 9 10 11 12 13 14 15 16 17 18 19 20 21 22 23 24 25 26 27 28 29 30 31 32 33 34 35 36 37 38 39 40 41 42 43 44 45 46 47 48 49 50
000
FTUS45 KBOU 020520
TAFDEN
TAF
KDEN 020520Z 0206/0312 18015KT P6SM SCT150 BKN220
     FM020800 20012KT P6SM FEW150 BKN220
     FM021200 24009KT P6SM FEW140 SCT220
     FM021400 31007KT P6SM FEW100 SCT150
     FM021800 06006KT P6SM FEW080 SCT220
     FM022200 11010KT P6SM VCTS SCT080CB BKN120
     FM030300 16014KT P6SM SCT080 BKN120
     FM030500 20012KT P6SM FEW090 SCT140=

USA.gov is the U.S. government's official web portal to all federal, state and local government web resources and services.